createdAt,value
2018-12-15T00:02:23.578Z,1.50
2018-12-15T00:04:55.087Z,1.50
2018-12-15T00:07:23.583Z,1.50
2018-12-15T00:09:52.075Z,1.60
2018-12-15T00:12:20.587Z,1.50
2018-12-15T00:14:49.073Z,1.50
2018-12-15T00:17:17.624Z,1.50
2018-12-15T00:19:46.130Z,1.50
2018-12-15T00:22:14.739Z,1.50
2018-12-15T00:24:43.228Z,1.50
2018-12-15T00:27:11.700Z,1.50
2018-12-15T00:29:40.183Z,1.50
2018-12-15T00:32:08.679Z,1.50
2018-12-15T00:34:37.184Z,1.50
2018-12-15T00:37:05.791Z,1.50
2018-12-15T00:39:34.375Z,1.50
2018-12-15T00:42:02.899Z,1.50
2018-12-15T00:44:31.372Z,1.50
2018-12-15T00:46:59.849Z,1.50
2018-12-15T00:49:28.348Z,1.50
2018-12-15T00:51:56.846Z,1.50
2018-12-15T00:54:25.324Z,1.50
2018-12-15T00:56:53.803Z,1.50
2018-12-15T00:59:22.424Z,1.50
2018-12-15T01:01:52.740Z,1.50
2018-12-15T01:04:21.242Z,1.50
2018-12-15T01:06:49.711Z,1.50
2018-12-15T01:09:18.319Z,1.50
2018-12-15T01:11:46.775Z,1.50
2018-12-15T01:14:15.251Z,1.50
2018-12-15T01:16:43.746Z,1.50
2018-12-15T01:19:12.267Z,1.50
2018-12-15T01:21:40.752Z,1.50
2018-12-15T01:24:09.255Z,1.50
2018-12-15T01:26:37.722Z,1.50
2018-12-15T01:29:06.196Z,1.50
2018-12-15T01:31:34.661Z,1.50
2018-12-15T01:34:03.147Z,1.50
2018-12-15T01:36:32.143Z,1.50
2018-12-15T01:39:00.618Z,1.50
2018-12-15T01:41:29.101Z,1.50
2018-12-15T01:43:57.581Z,1.50
2018-12-15T01:46:26.058Z,1.50
2018-12-15T01:48:54.520Z,1.50
2018-12-15T01:51:23.000Z,1.50
2018-12-15T01:53:51.468Z,1.50
2018-12-15T01:56:19.964Z,1.50
2018-12-15T01:58:48.433Z,1.50
2018-12-15T02:01:16.918Z,1.50
2018-12-15T02:03:45.397Z,1.50
2018-12-15T02:06:13.928Z,1.50
2018-12-15T02:08:42.473Z,1.50
2018-12-15T02:11:10.975Z,1.50
2018-12-15T02:13:39.459Z,1.50
2018-12-15T02:16:08.047Z,1.50
2018-12-15T02:18:36.520Z,1.50
2018-12-15T02:21:04.995Z,1.50
2018-12-15T02:23:33.602Z,1.50
2018-12-15T02:26:02.098Z,1.50
2018-12-15T02:28:30.567Z,1.50
2018-12-15T02:30:59.056Z,1.50
2018-12-15T02:33:27.523Z,1.50
2018-12-15T02:35:56.031Z,1.50
2018-12-15T02:38:24.517Z,1.50
2018-12-15T02:40:52.998Z,1.50
2018-12-15T02:43:21.476Z,1.50
2018-12-15T02:45:49.963Z,1.50
2018-12-15T02:48:18.447Z,1.50
2018-12-15T02:50:46.950Z,1.50
2018-12-15T02:53:15.432Z,1.50
2018-12-15T02:55:43.914Z,1.50
2018-12-15T02:58:12.371Z,1.50
2018-12-15T03:00:40.834Z,1.50
2018-12-15T03:03:09.396Z,1.50
2018-12-15T03:05:37.916Z,1.50
2018-12-15T03:08:06.393Z,1.50
2018-12-15T03:10:34.877Z,1.50
2018-12-15T03:13:03.344Z,1.50
2018-12-15T03:15:31.836Z,1.50
2018-12-15T03:18:00.305Z,1.60
2018-12-15T03:20:28.767Z,1.60
2018-12-15T03:22:57.274Z,1.60
2018-12-15T03:25:25.755Z,1.60
2018-12-15T03:27:54.217Z,1.60
2018-12-15T03:30:22.695Z,1.60
2018-12-15T03:32:51.169Z,1.60
2018-12-15T03:35:19.635Z,1.60
2018-12-15T03:37:48.104Z,1.60
2018-12-15T03:40:16.568Z,1.60
2018-12-15T03:42:45.052Z,1.60
2018-12-15T03:45:13.531Z,1.60
2018-12-15T03:47:42.007Z,1.50
2018-12-15T03:50:10.468Z,1.50
2018-12-15T03:52:38.959Z,1.50
2018-12-15T03:55:07.571Z,1.50
2018-12-15T03:57:36.028Z,1.50
2018-12-15T04:00:04.923Z,1.50
2018-12-15T04:02:33.492Z,1.50
2018-12-15T04:05:02.098Z,1.50
2018-12-15T04:07:30.582Z,1.50
2018-12-15T04:09:59.043Z,1.50
2018-12-15T04:12:27.526Z,1.50
2018-12-15T04:14:56.001Z,1.50
2018-12-15T04:17:24.475Z,1.50
2018-12-15T04:19:52.931Z,1.50
2018-12-15T04:22:21.586Z,1.50
2018-12-15T04:24:50.047Z,1.50
2018-12-15T04:27:18.659Z,1.50
2018-12-15T04:29:47.138Z,1.50
2018-12-15T04:32:15.595Z,1.50
2018-12-15T04:34:44.098Z,1.50
2018-12-15T04:37:12.568Z,1.50
2018-12-15T04:39:41.030Z,1.50
2018-12-15T04:42:09.472Z,1.40
2018-12-15T04:44:37.965Z,1.50
2018-12-15T04:47:06.773Z,1.40
2018-12-15T04:49:35.263Z,1.50
2018-12-15T04:52:04.181Z,1.50
2018-12-15T04:54:32.630Z,1.40
2018-12-15T04:57:01.115Z,1.50
2018-12-15T04:59:29.894Z,1.50
2018-12-15T05:01:58.397Z,1.50
2018-12-15T05:04:26.918Z,1.50
2018-12-15T05:06:55.379Z,1.50
2018-12-15T05:09:25.678Z,1.40
2018-12-15T05:11:54.163Z,1.50
2018-12-15T05:14:23.843Z,1.50
2018-12-15T05:16:53.759Z,1.50
2018-12-15T05:19:22.271Z,1.50
2018-12-15T05:21:50.750Z,1.50
2018-12-15T05:24:19.954Z,1.50
2018-12-15T05:26:48.448Z,1.50
2018-12-15T05:29:16.954Z,1.50
2018-12-15T05:31:45.407Z,1.50
2018-12-15T05:34:13.870Z,1.50
2018-12-15T05:36:44.406Z,1.50
2018-12-15T05:39:14.096Z,1.50
2018-12-15T05:41:48.155Z,1.50
2018-12-15T05:44:16.656Z,1.50
2018-12-15T05:46:45.143Z,1.50
2018-12-15T05:49:13.623Z,1.50
2018-12-15T05:51:42.375Z,1.50
2018-12-15T05:54:10.828Z,1.50
2018-12-15T05:56:39.309Z,1.50
2018-12-15T05:59:07.835Z,1.50
2018-12-15T06:01:36.527Z,1.50
2018-12-15T06:04:06.098Z,1.50
2018-12-15T06:06:34.585Z,1.50
2018-12-15T06:09:03.231Z,1.50
2018-12-15T06:11:32.474Z,1.50
2018-12-15T06:14:01.014Z,1.50
2018-12-15T06:16:29.478Z,1.50
2018-12-15T06:18:58.103Z,1.50
2018-12-15T06:21:26.623Z,1.50
2018-12-15T06:23:55.143Z,1.50
2018-12-15T06:26:23.653Z,1.50
2018-12-15T06:28:52.305Z,1.50
2018-12-15T06:31:20.822Z,1.50
2018-12-15T06:33:49.311Z,1.50
2018-12-15T06:36:17.879Z,1.50
2018-12-15T06:38:46.418Z,1.40
2018-12-15T06:41:14.884Z,1.40
2018-12-15T06:43:43.648Z,1.40
2018-12-15T06:46:12.376Z,1.40
2018-12-15T06:48:40.966Z,1.40
2018-12-15T06:51:09.579Z,1.40
2018-12-15T06:53:38.132Z,1.40
2018-12-15T06:56:06.716Z,1.40
2018-12-15T06:58:35.249Z,1.40
2018-12-15T07:01:03.738Z,1.40
2018-12-15T07:03:32.255Z,1.40
2018-12-15T07:06:00.728Z,1.40
2018-12-15T07:08:29.308Z,1.40
2018-12-15T07:10:57.820Z,1.40
2018-12-15T07:13:26.334Z,1.40
2018-12-15T07:15:54.874Z,1.40
2018-12-15T07:18:23.374Z,1.40
2018-12-15T07:20:51.846Z,1.40
2018-12-15T07:23:20.397Z,1.40
2018-12-15T07:25:49.161Z,1.40
2018-12-15T07:28:17.724Z,1.40
2018-12-15T07:30:46.383Z,1.40
2018-12-15T07:33:14.876Z,1.40
2018-12-15T07:35:43.394Z,1.40
2018-12-15T07:38:11.859Z,1.40
2018-12-15T07:40:40.782Z,1.40
2018-12-15T07:43:09.380Z,1.40
2018-12-15T07:45:38.978Z,1.40
2018-12-15T07:48:07.708Z,1.40
2018-12-15T07:50:36.299Z,1.40
2018-12-15T07:53:04.810Z,1.40
2018-12-15T07:55:33.348Z,1.40
2018-12-15T07:58:01.986Z,1.40
2018-12-15T08:00:30.927Z,1.40
2018-12-15T08:02:59.637Z,1.40
2018-12-15T08:05:28.275Z,1.40
2018-12-15T08:07:56.769Z,1.40
2018-12-15T08:10:25.319Z,1.40
2018-12-15T08:13:00.333Z,1.40
2018-12-15T08:15:28.853Z,1.40
2018-12-15T08:17:57.362Z,1.40
2018-12-15T08:20:25.871Z,1.40
2018-12-15T08:22:54.344Z,1.40
2018-12-15T08:25:22.874Z,1.40
2018-12-15T08:27:51.384Z,1.40
2018-12-15T08:30:19.938Z,1.40
2018-12-15T08:32:48.446Z,1.40
2018-12-15T08:35:16.932Z,1.40
2018-12-15T08:37:45.395Z,1.40
2018-12-15T08:40:13.887Z,1.40
2018-12-15T08:42:44.461Z,1.40
2018-12-15T08:45:13.306Z,1.40
2018-12-15T08:47:41.779Z,1.40
2018-12-15T08:50:10.260Z,1.40
2018-12-15T08:52:38.731Z,1.40
2018-12-15T08:55:07.465Z,1.40
2018-12-15T08:57:35.948Z,1.40
2018-12-15T09:00:04.688Z,1.40
2018-12-15T09:02:33.214Z,1.40
2018-12-15T09:05:01.691Z,1.50
2018-12-15T09:07:30.178Z,1.50
2018-12-15T09:09:58.666Z,1.50
2018-12-15T09:12:27.168Z,1.50
2018-12-15T09:14:55.632Z,1.50
2018-12-15T09:17:24.107Z,1.50
2018-12-15T09:19:52.591Z,1.50
2018-12-15T09:22:22.258Z,1.50
2018-12-15T09:24:50.941Z,1.50
2018-12-15T09:27:19.464Z,1.50
2018-12-15T09:29:48.023Z,1.50
2018-12-15T09:32:16.854Z,1.50
2018-12-15T09:34:45.406Z,1.50
2018-12-15T09:37:13.938Z,1.50
2018-12-15T09:39:42.442Z,1.50
2018-12-15T09:42:11.557Z,1.60
2018-12-15T09:44:41.927Z,1.60
2018-12-15T09:47:10.923Z,1.60
2018-12-15T09:49:39.478Z,1.60
2018-12-15T09:52:08.630Z,1.60
2018-12-15T09:54:37.759Z,1.60
2018-12-15T09:57:06.251Z,1.60
2018-12-15T09:59:34.836Z,1.60
2018-12-15T10:02:03.388Z,1.70
2018-12-15T10:04:32.534Z,1.70
2018-12-15T10:07:01.782Z,1.70
2018-12-15T10:09:30.298Z,1.70
2018-12-15T10:11:59.227Z,1.70
2018-12-15T10:14:28.536Z,1.70
2018-12-15T10:16:57.153Z,1.70
2018-12-15T10:19:26.230Z,1.70
2018-12-15T10:21:54.811Z,1.80
2018-12-15T10:24:23.347Z,1.70
2018-12-15T10:26:51.847Z,1.70
2018-12-15T10:29:25.798Z,1.70
2018-12-15T10:31:59.472Z,1.70
2018-12-15T10:34:27.981Z,1.80
2018-12-15T10:37:06.697Z,1.80
2018-12-15T10:39:36.236Z,1.80
2018-12-15T10:42:09.823Z,1.80
2018-12-15T10:47:52.524Z,1.80
2018-12-15T11:00:21.367Z,1.80
2018-12-15T11:03:00.061Z,1.80
2018-12-15T11:05:54.086Z,1.80
2018-12-15T11:08:23.392Z,1.80
2018-12-15T11:11:09.495Z,1.80
2018-12-15T11:13:57.698Z,1.80
2018-12-15T11:20:27.716Z,1.80
2018-12-15T11:23:04.624Z,1.80
2018-12-15T11:25:34.461Z,1.70
2018-12-15T11:31:02.292Z,1.80
2018-12-15T11:33:30.929Z,1.70
2018-12-15T11:36:00.364Z,1.80
2018-12-15T11:38:29.449Z,1.80
2018-12-15T11:40:58.606Z,1.80
2018-12-15T11:43:27.322Z,1.80
2018-12-15T11:45:56.203Z,1.80
2018-12-15T11:48:25.301Z,1.80
2018-12-15T11:50:53.851Z,1.80
2018-12-15T11:53:22.644Z,1.80
2018-12-15T11:55:51.930Z,1.80
2018-12-15T11:58:23.417Z,1.80
2018-12-15T12:00:58.612Z,1.80
2018-12-15T12:03:29.995Z,1.80
2018-12-15T12:05:59.875Z,1.80
2018-12-15T12:08:33.155Z,1.80
2018-12-15T12:11:02.061Z,1.80
2018-12-15T12:13:32.095Z,1.80
2018-12-15T12:16:00.600Z,1.80
2018-12-15T12:18:29.110Z,1.80
2018-12-15T12:20:58.461Z,1.80
2018-12-15T12:23:28.248Z,1.80
2018-12-15T12:25:57.124Z,1.80
2018-12-15T12:28:25.849Z,1.80
2018-12-15T12:30:54.820Z,1.70
2018-12-15T12:33:23.388Z,1.70
2018-12-15T12:35:52.258Z,1.70
2018-12-15T12:38:21.268Z,1.70
2018-12-15T12:40:50.126Z,1.80
2018-12-15T12:43:19.072Z,1.80
2018-12-15T12:45:48.761Z,1.80
2018-12-15T12:48:18.519Z,1.80
2018-12-15T12:50:47.885Z,1.80
2018-12-15T12:53:16.577Z,1.80
2018-12-15T12:55:45.124Z,1.70
2018-12-15T12:58:13.812Z,1.70
2018-12-15T13:00:42.301Z,1.70
2018-12-15T13:03:10.814Z,1.70
2018-12-15T13:05:39.374Z,1.70
2018-12-15T13:08:07.909Z,1.70
2018-12-15T13:10:37.117Z,1.70
2018-12-15T13:13:06.840Z,1.70
2018-12-15T13:15:35.339Z,1.70
2018-12-15T13:18:03.985Z,1.70
2018-12-15T13:20:32.488Z,1.70
2018-12-15T13:23:02.296Z,1.70
2018-12-15T13:25:32.048Z,1.70
2018-12-15T13:28:01.846Z,1.70
2018-12-15T13:30:30.346Z,1.70
2018-12-15T13:33:40.985Z,1.70
2018-12-15T13:36:17.815Z,1.70
2018-12-15T13:38:46.503Z,1.70
2018-12-15T13:41:15.076Z,1.70
2018-12-15T13:43:45.011Z,1.70
2018-12-15T13:46:13.681Z,1.70
2018-12-15T13:48:42.237Z,1.70
2018-12-15T13:51:10.751Z,1.70
2018-12-15T13:53:39.473Z,1.70
2018-12-15T13:56:08.364Z,1.70
2018-12-15T13:58:36.904Z,1.70
2018-12-15T14:01:05.622Z,1.70
2018-12-15T14:03:34.280Z,1.70
2018-12-15T14:06:02.816Z,1.70
2018-12-15T14:08:31.329Z,1.70
2018-12-15T14:10:59.928Z,1.70
2018-12-15T14:13:28.444Z,1.70
2018-12-15T14:15:56.943Z,1.60
2018-12-15T14:18:25.607Z,1.60
2018-12-15T14:20:54.189Z,1.60
2018-12-15T14:23:22.730Z,1.50
2018-12-15T14:25:51.273Z,1.50
2018-12-15T14:28:19.855Z,1.50
2018-12-15T14:30:48.358Z,1.50
2018-12-15T14:33:16.918Z,1.40
2018-12-15T14:35:45.424Z,1.40
2018-12-15T14:38:13.931Z,1.40
2018-12-15T14:40:43.481Z,1.40
2018-12-15T14:43:12.017Z,1.40
2018-12-15T14:45:40.561Z,1.40
2018-12-15T14:48:09.144Z,1.40
2018-12-15T14:50:37.733Z,1.40
2018-12-15T14:53:06.272Z,1.40
2018-12-15T14:55:34.823Z,1.40
2018-12-15T14:58:03.370Z,1.40
2018-12-15T15:00:33.734Z,1.30
2018-12-15T15:03:02.289Z,1.30
2018-12-15T15:05:30.796Z,1.30
2018-12-15T15:07:59.490Z,1.30
2018-12-15T15:10:28.028Z,1.30
2018-12-15T15:12:56.578Z,1.30
2018-12-15T15:15:25.118Z,1.30
2018-12-15T15:17:55.009Z,1.30
2018-12-15T15:20:29.794Z,1.30
2018-12-15T15:22:55.251Z,1.30
2018-12-15T15:25:24.147Z,1.30
2018-12-15T15:27:53.082Z,1.30
2018-12-15T15:30:21.663Z,1.20
2018-12-15T15:32:50.216Z,1.20
2018-12-15T15:35:22.224Z,1.20
2018-12-15T15:37:50.830Z,1.20
2018-12-15T15:40:19.499Z,1.20
2018-12-15T15:42:48.168Z,1.30
2018-12-15T15:45:16.913Z,1.20
2018-12-15T15:47:45.571Z,1.20
2018-12-15T15:50:17.306Z,1.30
2018-12-15T15:52:45.872Z,1.20
2018-12-15T15:55:14.429Z,1.20
2018-12-15T15:57:43.117Z,1.20
2018-12-15T16:00:12.136Z,1.20
2018-12-15T16:02:40.647Z,1.20
2018-12-15T16:05:09.400Z,1.20
2018-12-15T16:07:38.164Z,1.20
2018-12-15T16:10:09.535Z,1.20
2018-12-15T16:12:43.632Z,1.20
2018-12-15T16:15:13.128Z,1.10
2018-12-15T16:17:41.863Z,1.10
2018-12-15T16:20:12.332Z,1.10
2018-12-15T16:22:41.378Z,1.10
2018-12-15T16:25:10.045Z,1.10
2018-12-15T16:27:38.510Z,1.10
2018-12-15T16:30:11.361Z,1.10
2018-12-15T16:32:40.024Z,1.10
2018-12-15T16:35:08.763Z,1.10
2018-12-15T16:37:37.284Z,1.10
2018-12-15T16:40:07.662Z,1.10
2018-12-15T16:42:36.156Z,1.00
2018-12-15T16:45:06.790Z,1.00
2018-12-15T16:47:35.288Z,1.00
2018-12-15T16:50:04.292Z,1.00
2018-12-15T16:52:32.864Z,1.00
2018-12-15T16:55:02.402Z,1.00
2018-12-15T16:57:30.889Z,1.00
2018-12-15T16:59:59.422Z,1.00
2018-12-15T17:02:27.910Z,1.00
2018-12-15T17:04:56.472Z,1.00
2018-12-15T17:07:24.990Z,1.00
2018-12-15T17:09:53.531Z,1.00
2018-12-15T17:12:22.196Z,1.00
2018-12-15T17:14:50.850Z,0.90
2018-12-15T17:17:20.050Z,0.90
2018-12-15T17:19:48.580Z,0.90
2018-12-15T17:22:17.138Z,0.90
2018-12-15T17:24:45.688Z,0.80
2018-12-15T17:27:24.092Z,0.80
2018-12-15T17:29:52.646Z,0.80
2018-12-15T17:32:21.174Z,0.80
2018-12-15T17:34:49.708Z,0.80
2018-12-15T17:37:18.209Z,0.80
2018-12-15T17:39:46.744Z,0.70
2018-12-15T17:42:15.314Z,0.70
2018-12-15T17:44:43.824Z,0.70
2018-12-15T17:47:12.499Z,0.70
2018-12-15T17:49:40.976Z,0.70
2018-12-15T17:52:09.482Z,0.60
2018-12-15T17:54:38.161Z,0.60
2018-12-15T17:57:06.680Z,0.60
2018-12-15T17:59:35.169Z,0.50
2018-12-15T18:02:03.796Z,0.50
2018-12-15T18:04:32.325Z,0.50
2018-12-15T18:07:00.884Z,0.50
2018-12-15T18:09:29.471Z,0.40
2018-12-15T18:11:58.031Z,0.40
2018-12-15T18:14:26.579Z,0.40
2018-12-15T18:16:55.119Z,0.40
2018-12-15T18:19:36.677Z,0.40
2018-12-15T18:22:05.207Z,0.30
2018-12-15T18:24:33.788Z,0.30
2018-12-15T18:27:02.300Z,0.30
2018-12-15T18:29:30.807Z,0.20
2018-12-15T18:31:59.554Z,0.20
2018-12-15T18:34:28.040Z,0.20
2018-12-15T18:36:57.386Z,0.20
2018-12-15T18:39:25.877Z,0.10
2018-12-15T18:41:54.343Z,0.10
2018-12-15T18:44:23.493Z,0.10
2018-12-15T18:46:52.035Z,0.10
2018-12-15T18:49:20.545Z,0.00
2018-12-15T18:51:49.651Z,0.00
2018-12-15T18:54:18.305Z,0.00
2018-12-15T18:56:47.047Z,0.00
2018-12-15T18:59:15.623Z,-0.10
2018-12-15T19:01:44.146Z,-0.10
2018-12-15T19:04:12.633Z,-0.10
2018-12-15T19:06:41.141Z,-0.10
2018-12-15T19:09:09.762Z,-0.20
2018-12-15T19:11:38.241Z,-0.10
2018-12-15T19:14:06.772Z,-0.20
2018-12-15T19:16:35.271Z,-0.20
2018-12-15T19:19:03.784Z,-0.20
2018-12-15T19:21:32.323Z,-0.20
2018-12-15T19:24:00.977Z,-0.30
2018-12-15T19:26:29.444Z,-0.30
2018-12-15T19:28:58.197Z,-0.30
2018-12-15T19:31:26.750Z,-0.30
2018-12-15T19:33:55.272Z,-0.40
2018-12-15T19:36:23.801Z,-0.30
2018-12-15T19:38:52.384Z,-0.40
2018-12-15T19:41:21.046Z,-0.40
2018-12-15T19:43:49.538Z,-0.40
2018-12-15T19:46:18.247Z,-0.40
2018-12-15T19:48:46.874Z,-0.40
2018-12-15T19:51:15.526Z,-0.50
2018-12-15T19:53:45.153Z,-0.50
2018-12-15T19:56:13.868Z,-0.50
2018-12-15T19:58:42.811Z,-0.50
2018-12-15T20:01:11.407Z,-0.50
2018-12-15T20:03:40.023Z,-0.50
2018-12-15T20:06:09.071Z,-0.50
2018-12-15T20:08:37.650Z,-0.60
2018-12-15T20:11:06.283Z,-0.60
2018-12-15T20:13:34.820Z,-0.60
2018-12-15T20:16:03.474Z,-0.60
2018-12-15T20:18:31.996Z,-0.60
2018-12-15T20:21:00.534Z,-0.60
2018-12-15T20:23:29.115Z,-0.60
2018-12-15T20:25:57.676Z,-0.60
2018-12-15T20:28:26.239Z,-0.60
2018-12-15T20:30:54.770Z,-0.60
2018-12-15T20:33:23.362Z,-0.70
2018-12-15T20:35:51.866Z,-0.60
2018-12-15T20:38:20.417Z,-0.70
2018-12-15T20:40:48.920Z,-0.70
2018-12-15T20:43:17.429Z,-0.70
2018-12-15T20:45:45.953Z,-0.70
2018-12-15T20:48:14.476Z,-0.70
2018-12-15T20:50:43.024Z,-0.70
2018-12-15T20:53:11.725Z,-0.70
2018-12-15T20:55:40.256Z,-0.70
2018-12-15T20:58:08.779Z,-0.70
2018-12-15T21:00:37.436Z,-0.70
2018-12-15T21:03:05.991Z,-0.70
2018-12-15T21:05:36.828Z,-0.80
2018-12-15T21:08:05.136Z,-0.80
2018-12-15T21:10:33.753Z,-0.70
2018-12-15T21:13:02.304Z,-0.70
2018-12-15T21:15:34.131Z,-0.80
2018-12-15T21:18:02.681Z,-0.80
2018-12-15T21:20:31.576Z,-0.80
2018-12-15T21:23:00.175Z,-0.80
2018-12-15T21:25:28.832Z,-0.80
2018-12-15T21:27:57.475Z,-0.80
2018-12-15T21:30:26.085Z,-0.80
2018-12-15T21:32:54.693Z,-0.80
2018-12-15T21:35:23.316Z,-0.80
2018-12-15T21:37:51.929Z,-0.90
2018-12-15T21:40:20.619Z,-0.90
2018-12-15T21:42:49.221Z,-0.90
2018-12-15T21:45:18.383Z,-0.90
2018-12-15T21:47:46.983Z,-0.90
2018-12-15T21:50:15.708Z,-0.90
2018-12-15T21:52:44.367Z,-0.90
2018-12-15T21:55:12.974Z,-1.00
2018-12-15T21:57:41.648Z,-0.90
2018-12-15T22:00:10.429Z,-0.90
2018-12-15T22:02:38.958Z,-0.90
2018-12-15T22:05:07.799Z,-0.90
2018-12-15T22:07:36.287Z,-0.90
2018-12-15T22:10:06.023Z,-1.00
2018-12-15T22:12:34.627Z,-1.00
2018-12-15T22:15:03.258Z,-1.00
2018-12-15T22:17:31.767Z,-1.00
2018-12-15T22:20:00.245Z,-1.00
2018-12-15T22:22:28.836Z,-1.00
2018-12-15T22:24:58.008Z,-1.00
2018-12-15T22:27:26.586Z,-1.10
2018-12-15T22:29:55.162Z,-1.10
2018-12-15T22:32:23.635Z,-1.10
2018-12-15T22:34:52.142Z,-1.10
2018-12-15T22:37:20.623Z,-1.10
2018-12-15T22:39:51.084Z,-1.10
2018-12-15T22:42:19.600Z,-1.10
2018-12-15T22:44:48.076Z,-1.10
2018-12-15T22:47:16.558Z,-1.10
2018-12-15T22:49:45.068Z,-1.10
2018-12-15T22:52:13.522Z,-1.10
2018-12-15T22:54:42.042Z,-1.10
2018-12-15T22:57:12.591Z,-1.10
2018-12-15T22:59:41.117Z,-1.10
2018-12-15T23:02:09.628Z,-1.10
2018-12-15T23:04:38.087Z,-1.10
2018-12-15T23:07:06.895Z,-1.10
2018-12-15T23:09:35.384Z,-1.10
2018-12-15T23:12:03.982Z,-1.10
2018-12-15T23:14:32.451Z,-1.10
2018-12-15T23:17:00.933Z,-1.10
2018-12-15T23:19:29.414Z,-1.10
2018-12-15T23:21:57.880Z,-1.20
2018-12-15T23:24:26.363Z,-1.20
2018-12-15T23:26:54.939Z,-1.20
2018-12-15T23:29:23.518Z,-1.20
2018-12-15T23:31:51.988Z,-1.20
2018-12-15T23:34:20.481Z,-1.20
2018-12-15T23:36:48.956Z,-1.20
2018-12-15T23:39:17.423Z,-1.20
2018-12-15T23:41:45.884Z,-1.20
2018-12-15T23:44:14.351Z,-1.20
2018-12-15T23:46:42.822Z,-1.20
2018-12-15T23:49:11.293Z,-1.20
2018-12-15T23:51:39.768Z,-1.20
2018-12-15T23:54:08.238Z,-1.20
2018-12-15T23:56:36.693Z,-1.10
2018-12-15T23:59:05.152Z,-1.20
